sensor_id;sensor_type;location;lat;lon;timestamp;P1;durP1;ratioP1;P2;durP2;ratioP2
39300;SDS011;25019;42.626;23.380;2023-05-07T00:00:00;4.93;;;3.53;;
39300;SDS011;25019;42.626;23.380;2023-05-07T00:02:26;4.43;;;3.70;;
39300;SDS011;25019;42.626;23.380;2023-05-07T00:04:52;3.90;;;3.30;;
39300;SDS011;25019;42.626;23.380;2023-05-07T00:07:17;4.33;;;3.87;;
39300;SDS011;25019;42.626;23.380;2023-05-07T00:09:43;5.77;;;4.03;;
39300;SDS011;25019;42.626;23.380;2023-05-07T00:12:09;6.40;;;3.73;;
39300;SDS011;25019;42.626;23.380;2023-05-07T00:14:35;5.30;;;3.90;;
39300;SDS011;25019;42.626;23.380;2023-05-07T00:17:01;6.37;;;3.97;;
39300;SDS011;25019;42.626;23.380;2023-05-07T00:19:26;4.80;;;3.87;;
39300;SDS011;25019;42.626;23.380;2023-05-07T00:21:52;7.43;;;5.57;;
39300;SDS011;25019;42.626;23.380;2023-05-07T00:24:20;8.73;;;6.30;;
39300;SDS011;25019;42.626;23.380;2023-05-07T00:26:45;9.23;;;7.07;;
39300;SDS011;25019;42.626;23.380;2023-05-07T00:29:11;8.83;;;7.33;;
39300;SDS011;25019;42.626;23.380;2023-05-07T00:31:36;8.73;;;7.43;;
39300;SDS011;25019;42.626;23.380;2023-05-07T00:34:02;10.00;;;7.60;;
39300;SDS011;25019;42.626;23.380;2023-05-07T00:36:28;8.23;;;7.07;;
39300;SDS011;25019;42.626;23.380;2023-05-07T00:38:54;9.33;;;6.77;;
39300;SDS011;25019;42.626;23.380;2023-05-07T00:41:22;9.47;;;6.97;;
39300;SDS011;25019;42.626;23.380;2023-05-07T00:43:47;10.30;;;7.20;;
39300;SDS011;25019;42.626;23.380;2023-05-07T00:46:13;10.60;;;6.80;;
39300;SDS011;25019;42.626;23.380;2023-05-07T00:48:41;7.03;;;5.30;;
39300;SDS011;25019;42.626;23.380;2023-05-07T00:51:07;4.93;;;4.20;;
39300;SDS011;25019;42.626;23.380;2023-05-07T00:53:32;5.53;;;4.03;;
39300;SDS011;25019;42.626;23.380;2023-05-07T00:55:59;5.80;;;4.40;;
39300;SDS011;25019;42.626;23.380;2023-05-07T00:58:25;6.53;;;4.50;;
39300;SDS011;25019;42.626;23.380;2023-05-07T01:00:52;5.93;;;4.07;;
39300;SDS011;25019;42.626;23.380;2023-05-07T01:03:17;5.00;;;4.50;;
39300;SDS011;25019;42.626;23.380;2023-05-07T01:05:43;5.13;;;3.90;;
39300;SDS011;25019;42.626;23.380;2023-05-07T01:08:11;4.93;;;4.43;;
39300;SDS011;25019;42.626;23.380;2023-05-07T01:10:38;5.03;;;4.00;;
39300;SDS011;25019;42.626;23.380;2023-05-07T01:13:08;4.83;;;4.10;;
39300;SDS011;25019;42.626;23.380;2023-05-07T01:15:36;5.80;;;4.47;;
39300;SDS011;25019;42.626;23.380;2023-05-07T01:18:02;5.20;;;4.60;;
39300;SDS011;25019;42.626;23.380;2023-05-07T01:20:32;7.00;;;4.53;;
39300;SDS011;25019;42.626;23.380;2023-05-07T01:22:58;5.13;;;4.40;;
39300;SDS011;25019;42.626;23.380;2023-05-07T01:25:26;5.67;;;4.67;;
39300;SDS011;25019;42.626;23.380;2023-05-07T01:27:55;4.83;;;4.40;;
39300;SDS011;25019;42.626;23.380;2023-05-07T01:30:25;6.43;;;5.03;;
39300;SDS011;25019;42.626;23.380;2023-05-07T01:32:59;5.77;;;4.80;;
39300;SDS011;25019;42.626;23.380;2023-05-07T01:35:36;6.90;;;4.80;;
39300;SDS011;25019;42.626;23.380;2023-05-07T01:38:04;5.20;;;4.67;;
39300;SDS011;25019;42.626;23.380;2023-05-07T01:40:31;6.07;;;5.17;;
39300;SDS011;25019;42.626;23.380;2023-05-07T01:42:57;7.00;;;5.20;;
39300;SDS011;25019;42.626;23.380;2023-05-07T01:45:22;7.20;;;5.80;;
39300;SDS011;25019;42.626;23.380;2023-05-07T01:47:49;8.60;;;6.23;;
39300;SDS011;25019;42.626;23.380;2023-05-07T01:50:15;9.17;;;6.47;;
39300;SDS011;25019;42.626;23.380;2023-05-07T01:52:43;7.37;;;6.27;;
39300;SDS011;25019;42.626;23.380;2023-05-07T01:55:09;9.57;;;6.83;;
39300;SDS011;25019;42.626;23.380;2023-05-07T01:57:35;8.47;;;7.47;;
39300;SDS011;25019;42.626;23.380;2023-05-07T02:00:01;8.03;;;7.23;;
39300;SDS011;25019;42.626;23.380;2023-05-07T02:02:28;9.77;;;7.37;;
39300;SDS011;25019;42.626;23.380;2023-05-07T02:04:56;10.00;;;7.63;;
39300;SDS011;25019;42.626;23.380;2023-05-07T02:07:22;9.13;;;7.70;;
39300;SDS011;25019;42.626;23.380;2023-05-07T02:09:48;9.23;;;7.60;;
39300;SDS011;25019;42.626;23.380;2023-05-07T02:12:14;9.10;;;8.03;;
39300;SDS011;25019;42.626;23.380;2023-05-07T02:14:40;10.20;;;7.93;;
39300;SDS011;25019;42.626;23.380;2023-05-07T02:17:05;11.30;;;7.83;;
39300;SDS011;25019;42.626;23.380;2023-05-07T02:19:31;9.83;;;8.00;;
39300;SDS011;25019;42.626;23.380;2023-05-07T02:21:57;8.13;;;7.33;;
39300;SDS011;25019;42.626;23.380;2023-05-07T02:24:22;9.53;;;8.00;;
39300;SDS011;25019;42.626;23.380;2023-05-07T02:26:48;8.80;;;7.67;;
39300;SDS011;25019;42.626;23.380;2023-05-07T02:29:14;11.10;;;8.03;;
39300;SDS011;25019;42.626;23.380;2023-05-07T02:31:40;9.70;;;8.43;;
39300;SDS011;25019;42.626;23.380;2023-05-07T02:34:05;11.00;;;8.33;;
39300;SDS011;25019;42.626;23.380;2023-05-07T02:36:31;8.27;;;7.07;;
39300;SDS011;25019;42.626;23.380;2023-05-07T02:39:03;7.90;;;6.80;;
39300;SDS011;25019;42.626;23.380;2023-05-07T02:41:29;10.13;;;8.53;;
39300;SDS011;25019;42.626;23.380;2023-05-07T02:43:54;9.30;;;7.90;;
39300;SDS011;25019;42.626;23.380;2023-05-07T02:46:20;9.97;;;7.90;;
39300;SDS011;25019;42.626;23.380;2023-05-07T02:48:52;14.20;;;9.03;;
39300;SDS011;25019;42.626;23.380;2023-05-07T02:51:19;9.50;;;8.47;;
39300;SDS011;25019;42.626;23.380;2023-05-07T02:53:46;10.33;;;8.80;;
39300;SDS011;25019;42.626;23.380;2023-05-07T02:56:11;10.57;;;8.70;;
39300;SDS011;25019;42.626;23.380;2023-05-07T02:58:37;12.53;;;9.23;;
39300;SDS011;25019;42.626;23.380;2023-05-07T03:01:08;10.43;;;9.33;;
39300;SDS011;25019;42.626;23.380;2023-05-07T03:03:38;10.93;;;9.83;;
39300;SDS011;25019;42.626;23.380;2023-05-07T03:06:04;11.87;;;9.97;;
39300;SDS011;25019;42.626;23.380;2023-05-07T03:08:30;12.73;;;10.10;;
39300;SDS011;25019;42.626;23.380;2023-05-07T03:10:56;13.40;;;11.07;;
39300;SDS011;25019;42.626;23.380;2023-05-07T03:13:21;12.03;;;10.67;;
39300;SDS011;25019;42.626;23.380;2023-05-07T03:15:47;14.17;;;11.20;;
39300;SDS011;25019;42.626;23.380;2023-05-07T03:18:13;13.83;;;11.93;;
39300;SDS011;25019;42.626;23.380;2023-05-07T03:20:39;12.90;;;11.60;;
39300;SDS011;25019;42.626;23.380;2023-05-07T03:23:04;15.93;;;12.43;;
39300;SDS011;25019;42.626;23.380;2023-05-07T03:25:31;14.13;;;12.23;;
39300;SDS011;25019;42.626;23.380;2023-05-07T03:27:57;14.40;;;12.30;;
39300;SDS011;25019;42.626;23.380;2023-05-07T03:30:26;14.20;;;12.07;;
39300;SDS011;25019;42.626;23.380;2023-05-07T03:32:52;15.20;;;12.47;;
39300;SDS011;25019;42.626;23.380;2023-05-07T03:35:18;17.00;;;12.73;;
39300;SDS011;25019;42.626;23.380;2023-05-07T03:37:44;15.70;;;13.07;;
39300;SDS011;25019;42.626;23.380;2023-05-07T03:40:11;16.50;;;12.83;;
39300;SDS011;25019;42.626;23.380;2023-05-07T03:42:44;16.40;;;13.13;;
39300;SDS011;25019;42.626;23.380;2023-05-07T03:45:11;14.73;;;12.17;;
39300;SDS011;25019;42.626;23.380;2023-05-07T03:47:41;13.07;;;11.27;;
39300;SDS011;25019;42.626;23.380;2023-05-07T03:50:08;16.13;;;11.37;;
39300;SDS011;25019;42.626;23.380;2023-05-07T03:52:35;12.07;;;10.87;;
39300;SDS011;25019;42.626;23.380;2023-05-07T03:55:02;12.17;;;10.07;;
39300;SDS011;25019;42.626;23.380;2023-05-07T03:57:29;11.43;;;10.10;;
39300;SDS011;25019;42.626;23.380;2023-05-07T03:59:57;12.77;;;10.50;;
39300;SDS011;25019;42.626;23.380;2023-05-07T04:02:23;11.93;;;10.03;;
39300;SDS011;25019;42.626;23.380;2023-05-07T04:04:49;10.30;;;9.10;;
39300;SDS011;25019;42.626;23.380;2023-05-07T04:07:15;12.40;;;9.43;;
39300;SDS011;25019;42.626;23.380;2023-05-07T04:09:43;13.20;;;9.27;;
39300;SDS011;25019;42.626;23.380;2023-05-07T04:12:09;10.77;;;8.70;;
39300;SDS011;25019;42.626;23.380;2023-05-07T04:14:35;10.07;;;9.00;;
39300;SDS011;25019;42.626;23.380;2023-05-07T04:17:01;9.07;;;8.17;;
39300;SDS011;25019;42.626;23.380;2023-05-07T04:19:28;9.37;;;8.37;;
39300;SDS011;25019;42.626;23.380;2023-05-07T04:21:54;9.30;;;8.30;;
39300;SDS011;25019;42.626;23.380;2023-05-07T04:24:20;8.87;;;7.97;;
39300;SDS011;25019;42.626;23.380;2023-05-07T04:26:45;8.23;;;7.43;;
39300;SDS011;25019;42.626;23.380;2023-05-07T04:29:11;10.53;;;8.27;;
39300;SDS011;25019;42.626;23.380;2023-05-07T04:31:37;9.53;;;8.43;;
39300;SDS011;25019;42.626;23.380;2023-05-07T04:34:03;9.37;;;8.27;;
39300;SDS011;25019;42.626;23.380;2023-05-07T04:36:28;10.00;;;8.43;;
39300;SDS011;25019;42.626;23.380;2023-05-07T04:39:02;8.83;;;7.93;;
39300;SDS011;25019;42.626;23.380;2023-05-07T04:41:27;10.13;;;8.50;;
39300;SDS011;25019;42.626;23.380;2023-05-07T04:43:53;10.40;;;8.87;;
39300;SDS011;25019;42.626;23.380;2023-05-07T04:46:22;10.77;;;8.33;;
39300;SDS011;25019;42.626;23.380;2023-05-07T04:48:49;9.30;;;7.90;;
39300;SDS011;25019;42.626;23.380;2023-05-07T04:51:15;9.80;;;8.23;;
39300;SDS011;25019;42.626;23.380;2023-05-07T04:53:41;11.10;;;9.03;;
39300;SDS011;25019;42.626;23.380;2023-05-07T04:56:08;9.20;;;8.20;;
39300;SDS011;25019;42.626;23.380;2023-05-07T04:58:39;9.27;;;8.27;;
39300;SDS011;25019;42.626;23.380;2023-05-07T05:01:05;8.80;;;7.80;;
39300;SDS011;25019;42.626;23.380;2023-05-07T05:03:31;11.03;;;8.27;;
39300;SDS011;25019;42.626;23.380;2023-05-07T05:05:57;9.83;;;8.90;;
39300;SDS011;25019;42.626;23.380;2023-05-07T05:08:27;10.20;;;8.90;;
39300;SDS011;25019;42.626;23.380;2023-05-07T05:10:53;10.47;;;8.30;;
39300;SDS011;25019;42.626;23.380;2023-05-07T05:13:19;10.27;;;8.80;;
39300;SDS011;25019;42.626;23.380;2023-05-07T05:15:45;11.97;;;8.10;;
39300;SDS011;25019;42.626;23.380;2023-05-07T05:18:11;8.73;;;7.83;;
39300;SDS011;25019;42.626;23.380;2023-05-07T05:20:38;10.43;;;7.53;;
39300;SDS011;25019;42.626;23.380;2023-05-07T05:23:05;9.07;;;8.10;;
39300;SDS011;25019;42.626;23.380;2023-05-07T05:25:32;8.50;;;7.60;;
39300;SDS011;25019;42.626;23.380;2023-05-07T05:27:58;11.00;;;8.20;;
39300;SDS011;25019;42.626;23.380;2023-05-07T05:30:26;8.33;;;6.90;;
39300;SDS011;25019;42.626;23.380;2023-05-07T05:33:01;9.60;;;8.37;;
39300;SDS011;25019;42.626;23.380;2023-05-07T05:35:27;9.30;;;8.30;;
39300;SDS011;25019;42.626;23.380;2023-05-07T05:37:55;11.53;;;8.00;;
39300;SDS011;25019;42.626;23.380;2023-05-07T05:40:21;9.83;;;7.67;;
39300;SDS011;25019;42.626;23.380;2023-05-07T05:42:47;8.33;;;7.53;;
39300;SDS011;25019;42.626;23.380;2023-05-07T05:45:13;9.10;;;7.30;;
39300;SDS011;25019;42.626;23.380;2023-05-07T05:47:39;8.03;;;7.23;;
39300;SDS011;25019;42.626;23.380;2023-05-07T05:50:06;9.17;;;7.63;;
39300;SDS011;25019;42.626;23.380;2023-05-07T05:52:32;9.33;;;7.33;;
39300;SDS011;25019;42.626;23.380;2023-05-07T05:54:58;8.50;;;7.70;;
39300;SDS011;25019;42.626;23.380;2023-05-07T05:57:25;8.20;;;7.37;;
39300;SDS011;25019;42.626;23.380;2023-05-07T05:59:50;8.60;;;7.50;;
39300;SDS011;25019;42.626;23.380;2023-05-07T06:02:17;8.10;;;6.93;;
39300;SDS011;25019;42.626;23.380;2023-05-07T06:04:43;8.03;;;7.23;;
39300;SDS011;25019;42.626;23.380;2023-05-07T06:07:14;8.60;;;7.73;;
39300;SDS011;25019;42.626;23.380;2023-05-07T06:09:40;9.50;;;7.67;;
39300;SDS011;25019;42.626;23.380;2023-05-07T06:12:06;8.10;;;6.30;;
39300;SDS011;25019;42.626;23.380;2023-05-07T06:14:32;8.00;;;7.20;;
39300;SDS011;25019;42.626;23.380;2023-05-07T06:16:58;9.23;;;7.40;;
39300;SDS011;25019;42.626;23.380;2023-05-07T06:19:23;8.03;;;7.23;;
39300;SDS011;25019;42.626;23.380;2023-05-07T06:21:51;9.27;;;7.30;;
39300;SDS011;25019;42.626;23.380;2023-05-07T06:24:17;7.87;;;6.93;;
39300;SDS011;25019;42.626;23.380;2023-05-07T06:26:42;9.77;;;7.60;;
39300;SDS011;25019;42.626;23.380;2023-05-07T06:29:08;8.37;;;7.57;;
39300;SDS011;25019;42.626;23.380;2023-05-07T06:31:34;9.17;;;7.80;;
39300;SDS011;25019;42.626;23.380;2023-05-07T06:34:03;9.60;;;7.93;;
39300;SDS011;25019;42.626;23.380;2023-05-07T06:36:36;8.33;;;7.50;;
39300;SDS011;25019;42.626;23.380;2023-05-07T06:39:11;8.67;;;7.37;;
39300;SDS011;25019;42.626;23.380;2023-05-07T06:41:37;7.30;;;6.60;;
39300;SDS011;25019;42.626;23.380;2023-05-07T06:44:08;7.80;;;7.00;;
39300;SDS011;25019;42.626;23.380;2023-05-07T06:46:41;7.87;;;6.97;;
39300;SDS011;25019;42.626;23.380;2023-05-07T06:49:07;9.10;;;6.80;;
39300;SDS011;25019;42.626;23.380;2023-05-07T06:51:33;8.47;;;6.70;;
39300;SDS011;25019;42.626;23.380;2023-05-07T06:54:02;11.07;;;8.13;;
39300;SDS011;25019;42.626;23.380;2023-05-07T06:56:30;8.67;;;7.37;;
39300;SDS011;25019;42.626;23.380;2023-05-07T06:58:56;9.13;;;7.13;;
39300;SDS011;25019;42.626;23.380;2023-05-07T07:01:22;9.57;;;7.33;;
39300;SDS011;25019;42.626;23.380;2023-05-07T07:03:48;11.57;;;7.37;;
39300;SDS011;25019;42.626;23.380;2023-05-07T07:06:15;9.43;;;6.93;;
39300;SDS011;25019;42.626;23.380;2023-05-07T07:08:41;9.23;;;7.03;;
39300;SDS011;25019;42.626;23.380;2023-05-07T07:11:06;8.40;;;7.27;;
39300;SDS011;25019;42.626;23.380;2023-05-07T07:13:33;8.87;;;7.10;;
39300;SDS011;25019;42.626;23.380;2023-05-07T07:15:59;8.53;;;7.17;;
39300;SDS011;25019;42.626;23.380;2023-05-07T07:18:25;11.03;;;6.87;;
39300;SDS011;25019;42.626;23.380;2023-05-07T07:20:52;7.73;;;6.83;;
39300;SDS011;25019;42.626;23.380;2023-05-07T07:23:18;11.10;;;6.90;;
39300;SDS011;25019;42.626;23.380;2023-05-07T07:25:44;8.33;;;7.37;;
39300;SDS011;25019;42.626;23.380;2023-05-07T07:28:10;7.73;;;5.60;;
39300;SDS011;25019;42.626;23.380;2023-05-07T07:30:37;7.80;;;6.13;;
39300;SDS011;25019;42.626;23.380;2023-05-07T07:33:03;6.93;;;6.17;;
39300;SDS011;25019;42.626;23.380;2023-05-07T07:35:34;11.10;;;7.13;;
39300;SDS011;25019;42.626;23.380;2023-05-07T07:38:00;10.40;;;7.40;;
39300;SDS011;25019;42.626;23.380;2023-05-07T07:40:28;9.47;;;7.60;;
39300;SDS011;25019;42.626;23.380;2023-05-07T07:42:53;9.17;;;7.27;;
39300;SDS011;25019;42.626;23.380;2023-05-07T07:45:19;9.43;;;7.03;;
39300;SDS011;25019;42.626;23.380;2023-05-07T07:47:47;8.97;;;7.20;;
39300;SDS011;25019;42.626;23.380;2023-05-07T07:50:13;8.13;;;6.73;;
39300;SDS011;25019;42.626;23.380;2023-05-07T07:52:39;10.00;;;8.37;;
39300;SDS011;25019;42.626;23.380;2023-05-07T07:55:06;8.90;;;7.47;;
39300;SDS011;25019;42.626;23.380;2023-05-07T07:57:32;9.17;;;7.13;;
39300;SDS011;25019;42.626;23.380;2023-05-07T07:59:58;9.33;;;7.30;;
39300;SDS011;25019;42.626;23.380;2023-05-07T08:02:24;12.50;;;7.23;;
39300;SDS011;25019;42.626;23.380;2023-05-07T08:04:50;9.63;;;7.13;;
39300;SDS011;25019;42.626;23.380;2023-05-07T08:07:16;9.23;;;7.50;;
39300;SDS011;25019;42.626;23.380;2023-05-07T08:09:46;9.57;;;6.77;;
39300;SDS011;25019;42.626;23.380;2023-05-07T08:12:14;12.70;;;7.80;;
39300;SDS011;25019;42.626;23.380;2023-05-07T08:14:40;12.27;;;7.07;;
39300;SDS011;25019;42.626;23.380;2023-05-07T08:17:07;9.23;;;7.77;;
39300;SDS011;25019;42.626;23.380;2023-05-07T08:19:35;8.23;;;6.60;;
39300;SDS011;25019;42.626;23.380;2023-05-07T08:22:02;8.40;;;6.33;;
39300;SDS011;25019;42.626;23.380;2023-05-07T08:24:29;7.63;;;6.17;;
39300;SDS011;25019;42.626;23.380;2023-05-07T08:26:55;9.43;;;6.77;;
39300;SDS011;25019;42.626;23.380;2023-05-07T08:29:20;7.33;;;6.63;;
39300;SDS011;25019;42.626;23.380;2023-05-07T08:31:46;9.13;;;7.30;;
39300;SDS011;25019;42.626;23.380;2023-05-07T08:34:12;7.63;;;6.70;;
39300;SDS011;25019;42.626;23.380;2023-05-07T08:36:41;9.97;;;7.13;;
39300;SDS011;25019;42.626;23.380;2023-05-07T08:39:08;9.30;;;6.83;;
39300;SDS011;25019;42.626;23.380;2023-05-07T08:41:34;8.40;;;6.90;;
39300;SDS011;25019;42.626;23.380;2023-05-07T08:44:01;9.63;;;7.40;;
39300;SDS011;25019;42.626;23.380;2023-05-07T08:46:30;9.13;;;7.00;;
39300;SDS011;25019;42.626;23.380;2023-05-07T08:48:57;7.87;;;5.70;;
39300;SDS011;25019;42.626;23.380;2023-05-07T08:51:23;9.10;;;5.80;;
39300;SDS011;25019;42.626;23.380;2023-05-07T08:53:50;7.30;;;5.80;;
39300;SDS011;25019;42.626;23.380;2023-05-07T08:56:22;6.70;;;4.77;;
39300;SDS011;25019;42.626;23.380;2023-05-07T08:58:48;6.27;;;5.10;;
39300;SDS011;25019;42.626;23.380;2023-05-07T09:01:15;7.43;;;5.10;;
39300;SDS011;25019;42.626;23.380;2023-05-07T09:03:44;6.00;;;4.23;;
39300;SDS011;25019;42.626;23.380;2023-05-07T09:06:11;8.43;;;4.47;;
39300;SDS011;25019;42.626;23.380;2023-05-07T09:08:37;7.83;;;4.93;;
39300;SDS011;25019;42.626;23.380;2023-05-07T09:11:04;5.37;;;4.73;;
39300;SDS011;25019;42.626;23.380;2023-05-07T09:13:31;7.40;;;5.40;;
39300;SDS011;25019;42.626;23.380;2023-05-07T09:15:59;7.53;;;5.40;;
39300;SDS011;25019;42.626;23.380;2023-05-07T09:18:41;6.47;;;5.30;;
39300;SDS011;25019;42.626;23.380;2023-05-07T09:21:19;7.43;;;5.30;;
39300;SDS011;25019;42.626;23.380;2023-05-07T09:23:49;7.03;;;5.33;;
39300;SDS011;25019;42.626;23.380;2023-05-07T09:26:21;8.37;;;5.57;;
39300;SDS011;25019;42.626;23.380;2023-05-07T09:28:48;5.57;;;4.97;;
39300;SDS011;25019;42.626;23.380;2023-05-07T09:31:14;5.63;;;4.70;;
39300;SDS011;25019;42.626;23.380;2023-05-07T09:33:40;5.83;;;5.10;;
39300;SDS011;25019;42.626;23.380;2023-05-07T09:36:08;5.33;;;4.80;;
39300;SDS011;25019;42.626;23.380;2023-05-07T09:38:37;6.10;;;4.77;;
39300;SDS011;25019;42.626;23.380;2023-05-07T09:43:53;7.40;;;4.93;;
39300;SDS011;25019;42.626;23.380;2023-05-07T09:46:21;6.83;;;4.27;;
39300;SDS011;25019;42.626;23.380;2023-05-07T09:48:53;4.60;;;4.17;;
39300;SDS011;25019;42.626;23.380;2023-05-07T09:51:29;4.70;;;4.17;;
39300;SDS011;25019;42.626;23.380;2023-05-07T09:54:15;5.17;;;4.03;;
39300;SDS011;25019;42.626;23.380;2023-05-07T09:56:45;7.17;;;4.07;;
39300;SDS011;25019;42.626;23.380;2023-05-07T09:59:15;4.83;;;3.80;;
39300;SDS011;25019;42.626;23.380;2023-05-07T10:01:43;5.40;;;4.33;;
39300;SDS011;25019;42.626;23.380;2023-05-07T10:04:10;4.90;;;4.23;;
39300;SDS011;25019;42.626;23.380;2023-05-07T10:06:37;5.20;;;4.43;;
39300;SDS011;25019;42.626;23.380;2023-05-07T10:09:05;4.97;;;4.47;;
39300;SDS011;25019;42.626;23.380;2023-05-07T10:11:32;5.77;;;4.57;;
39300;SDS011;25019;42.626;23.380;2023-05-07T10:13:59;6.40;;;4.20;;
39300;SDS011;25019;42.626;23.380;2023-05-07T10:16:32;5.97;;;4.57;;
39300;SDS011;25019;42.626;23.380;2023-05-07T10:19:02;4.87;;;3.67;;
39300;SDS011;25019;42.626;23.380;2023-05-07T10:21:29;4.53;;;4.10;;
39300;SDS011;25019;42.626;23.380;2023-05-07T10:24:09;4.00;;;3.70;;
39300;SDS011;25019;42.626;23.380;2023-05-07T10:26:43;6.47;;;4.20;;
39300;SDS011;25019;42.626;23.380;2023-05-07T10:31:54;4.70;;;4.00;;
39300;SDS011;25019;42.626;23.380;2023-05-07T10:34:27;4.63;;;4.10;;
39300;SDS011;25019;42.626;23.380;2023-05-07T10:36:58;5.57;;;4.87;;
39300;SDS011;25019;42.626;23.380;2023-05-07T10:39:24;4.87;;;4.37;;
39300;SDS011;25019;42.626;23.380;2023-05-07T10:41:51;5.73;;;4.00;;
39300;SDS011;25019;42.626;23.380;2023-05-07T10:44:26;4.90;;;4.20;;
39300;SDS011;25019;42.626;23.380;2023-05-07T10:47:04;4.50;;;4.20;;
39300;SDS011;25019;42.626;23.380;2023-05-07T10:57:40;8.53;;;4.80;;
39300;SDS011;25019;42.626;23.380;2023-05-07T11:05:35;6.53;;;4.23;;
39300;SDS011;25019;42.626;23.380;2023-05-07T11:08:44;4.30;;;3.90;;
39300;SDS011;25019;42.626;23.380;2023-05-07T11:17:27;4.40;;;3.80;;
39300;SDS011;25019;42.626;23.380;2023-05-07T11:20:02;4.47;;;3.70;;
39300;SDS011;25019;42.626;23.380;2023-05-07T11:22:38;4.57;;;4.10;;
39300;SDS011;25019;42.626;23.380;2023-05-07T11:25:18;5.97;;;3.93;;
39300;SDS011;25019;42.626;23.380;2023-05-07T11:27:48;5.07;;;3.90;;
39300;SDS011;25019;42.626;23.380;2023-05-07T11:30:17;4.47;;;4.07;;
39300;SDS011;25019;42.626;23.380;2023-05-07T11:32:44;6.13;;;4.33;;
39300;SDS011;25019;42.626;23.380;2023-05-07T11:35:12;4.63;;;4.23;;
39300;SDS011;25019;42.626;23.380;2023-05-07T11:37:41;4.43;;;4.03;;
39300;SDS011;25019;42.626;23.380;2023-05-07T11:40:08;7.00;;;4.47;;
39300;SDS011;25019;42.626;23.380;2023-05-07T11:42:37;6.83;;;4.13;;
39300;SDS011;25019;42.626;23.380;2023-05-07T11:45:03;5.50;;;3.50;;
39300;SDS011;25019;42.626;23.380;2023-05-07T11:47:31;4.30;;;3.90;;
39300;SDS011;25019;42.626;23.380;2023-05-07T11:49:57;5.50;;;4.40;;
39300;SDS011;25019;42.626;23.380;2023-05-07T11:52:31;5.43;;;4.57;;
39300;SDS011;25019;42.626;23.380;2023-05-07T11:54:57;5.43;;;3.93;;
39300;SDS011;25019;42.626;23.380;2023-05-07T11:57:25;4.67;;;3.80;;
39300;SDS011;25019;42.626;23.380;2023-05-07T12:02:20;5.00;;;4.37;;
39300;SDS011;25019;42.626;23.380;2023-05-07T12:04:46;7.10;;;4.20;;
39300;SDS011;25019;42.626;23.380;2023-05-07T12:07:12;5.57;;;3.90;;
39300;SDS011;25019;42.626;23.380;2023-05-07T12:09:39;7.93;;;4.43;;
39300;SDS011;25019;42.626;23.380;2023-05-07T12:12:05;6.57;;;3.90;;
39300;SDS011;25019;42.626;23.380;2023-05-07T12:14:31;7.73;;;4.70;;
39300;SDS011;25019;42.626;23.380;2023-05-07T12:16:58;5.50;;;4.37;;
39300;SDS011;25019;42.626;23.380;2023-05-07T12:19:28;4.93;;;3.83;;
39300;SDS011;25019;42.626;23.380;2023-05-07T12:21:55;6.00;;;4.10;;
39300;SDS011;25019;42.626;23.380;2023-05-07T12:24:22;4.53;;;3.97;;
39300;SDS011;25019;42.626;23.380;2023-05-07T12:26:48;5.97;;;3.70;;
39300;SDS011;25019;42.626;23.380;2023-05-07T12:29:14;4.97;;;4.10;;
39300;SDS011;25019;42.626;23.380;2023-05-07T12:31:43;5.20;;;4.47;;
39300;SDS011;25019;42.626;23.380;2023-05-07T12:34:10;4.13;;;3.80;;
39300;SDS011;25019;42.626;23.380;2023-05-07T12:36:39;5.13;;;4.13;;
39300;SDS011;25019;42.626;23.380;2023-05-07T12:39:08;4.47;;;3.93;;
39300;SDS011;25019;42.626;23.380;2023-05-07T12:41:54;5.27;;;4.77;;
39300;SDS011;25019;42.626;23.380;2023-05-07T12:44:25;4.40;;;4.00;;
39300;SDS011;25019;42.626;23.380;2023-05-07T12:46:55;6.87;;;4.27;;
39300;SDS011;25019;42.626;23.380;2023-05-07T12:49:21;5.90;;;3.90;;
39300;SDS011;25019;42.626;23.380;2023-05-07T12:51:47;4.43;;;4.03;;
39300;SDS011;25019;42.626;23.380;2023-05-07T12:54:27;4.27;;;3.57;;
39300;SDS011;25019;42.626;23.380;2023-05-07T12:57:03;5.17;;;3.57;;
39300;SDS011;25019;42.626;23.380;2023-05-07T13:02:02;4.30;;;3.90;;
39300;SDS011;25019;42.626;23.380;2023-05-07T13:04:27;3.53;;;3.20;;
39300;SDS011;25019;42.626;23.380;2023-05-07T13:06:53;5.60;;;3.73;;
39300;SDS011;25019;42.626;23.380;2023-05-07T13:09:19;5.27;;;3.90;;
39300;SDS011;25019;42.626;23.380;2023-05-07T13:11:44;4.67;;;3.80;;
39300;SDS011;25019;42.626;23.380;2023-05-07T13:14:10;6.23;;;3.87;;
39300;SDS011;25019;42.626;23.380;2023-05-07T13:16:35;4.33;;;3.70;;
39300;SDS011;25019;42.626;23.380;2023-05-07T13:19:01;4.03;;;3.60;;
39300;SDS011;25019;42.626;23.380;2023-05-07T13:21:27;4.00;;;3.60;;
39300;SDS011;25019;42.626;23.380;2023-05-07T13:23:53;5.77;;;3.60;;
39300;SDS011;25019;42.626;23.380;2023-05-07T13:26:19;6.03;;;3.27;;
39300;SDS011;25019;42.626;23.380;2023-05-07T13:28:45;4.60;;;3.53;;
39300;SDS011;25019;42.626;23.380;2023-05-07T13:31:11;4.40;;;3.63;;
39300;SDS011;25019;42.626;23.380;2023-05-07T13:33:37;4.20;;;3.47;;
39300;SDS011;25019;42.626;23.380;2023-05-07T13:36:02;4.13;;;2.97;;
39300;SDS011;25019;42.626;23.380;2023-05-07T13:38:30;3.40;;;2.70;;
39300;SDS011;25019;42.626;23.380;2023-05-07T13:40:56;3.50;;;2.60;;
39300;SDS011;25019;42.626;23.380;2023-05-07T13:43:22;3.93;;;3.17;;
39300;SDS011;25019;42.626;23.380;2023-05-07T13:45:47;3.60;;;2.40;;
39300;SDS011;25019;42.626;23.380;2023-05-07T13:48:13;2.97;;;2.67;;
39300;SDS011;25019;42.626;23.380;2023-05-07T13:50:39;3.07;;;2.77;;
39300;SDS011;25019;42.626;23.380;2023-05-07T13:53:04;3.13;;;2.60;;
39300;SDS011;25019;42.626;23.380;2023-05-07T13:55:30;4.23;;;2.70;;
39300;SDS011;25019;42.626;23.380;2023-05-07T13:57:56;3.60;;;2.30;;
39300;SDS011;25019;42.626;23.380;2023-05-07T14:00:24;2.80;;;2.40;;
39300;SDS011;25019;42.626;23.380;2023-05-07T14:02:51;2.57;;;2.37;;
39300;SDS011;25019;42.626;23.380;2023-05-07T14:05:17;3.63;;;2.30;;
39300;SDS011;25019;42.626;23.380;2023-05-07T14:07:43;4.90;;;2.60;;
39300;SDS011;25019;42.626;23.380;2023-05-07T14:10:09;3.03;;;2.67;;
39300;SDS011;25019;42.626;23.380;2023-05-07T14:12:36;2.67;;;2.47;;
39300;SDS011;25019;42.626;23.380;2023-05-07T14:15:02;3.77;;;2.40;;
39300;SDS011;25019;42.626;23.380;2023-05-07T14:17:28;4.20;;;2.50;;
39300;SDS011;25019;42.626;23.380;2023-05-07T14:19:54;3.90;;;2.47;;
39300;SDS011;25019;42.626;23.380;2023-05-07T14:22:23;4.73;;;2.33;;
39300;SDS011;25019;42.626;23.380;2023-05-07T14:24:49;2.37;;;2.17;;
39300;SDS011;25019;42.626;23.380;2023-05-07T14:27:15;2.73;;;2.30;;
39300;SDS011;25019;42.626;23.380;2023-05-07T14:29:41;2.67;;;2.43;;
39300;SDS011;25019;42.626;23.380;2023-05-07T14:32:07;4.20;;;2.67;;
39300;SDS011;25019;42.626;23.380;2023-05-07T14:34:35;2.97;;;2.67;;
39300;SDS011;25019;42.626;23.380;2023-05-07T14:37:00;3.77;;;2.87;;
39300;SDS011;25019;42.626;23.380;2023-05-07T14:39:26;3.73;;;2.80;;
39300;SDS011;25019;42.626;23.380;2023-05-07T14:41:52;3.47;;;2.50;;
39300;SDS011;25019;42.626;23.380;2023-05-07T14:44:20;3.53;;;2.50;;
39300;SDS011;25019;42.626;23.380;2023-05-07T14:46:46;3.70;;;2.60;;
39300;SDS011;25019;42.626;23.380;2023-05-07T14:49:11;2.37;;;2.17;;
39300;SDS011;25019;42.626;23.380;2023-05-07T14:51:45;2.97;;;2.20;;
39300;SDS011;25019;42.626;23.380;2023-05-07T14:54:12;5.40;;;2.47;;
39300;SDS011;25019;42.626;23.380;2023-05-07T14:56:38;2.83;;;2.60;;
39300;SDS011;25019;42.626;23.380;2023-05-07T14:59:07;2.50;;;2.30;;
39300;SDS011;25019;42.626;23.380;2023-05-07T15:01:36;4.07;;;2.80;;